Terminal Aerodrome Forecast
Issued by NWS Pittsburgh, PA

Home | Current Version | Previous Version | Text Only | Print | Product List | Glossary On
Versions: 1 2 3 4 5 6 7 8 9 10 11 12 13 14 15 16 17 18 19 20 21 22 23 24 25 26 27 28 29 30
809
FTUS41 KPBZ 282156 AAB
TAFPIT
TAF AMD
KPIT 282156Z 2822/2924 34010KT P6SM BKN025
     FM290000 34008KT P6SM BKN009
     FM291100 35005KT P6SM BKN015
     FM291600 35010KT P6SM SCT200=

USA.gov is the U.S. government's official web portal to all federal, state and local government web resources and services.